Red Lodge, MT (59068)

12:10 PM MDT on July 23, 2016 (GMT -0600)
Lazy SL Ranches | | Change Station

Elev 5502 ft 45.22 °N, 109.30 °W | Updated 10 minutes ago

Clear
Clear
76.1 °F
Feels Like 78 °F
N
5.3
Wind Variable Wind from West

Today
High -- | Low -- °F
--% Chance of Precip.
Yesterday
High -- | Low -- °F
Precip. -- in
Pressure 30.11 in
Visibility 10.0 miles
Clouds Clear
Heat Index 78 °F
Dew Point 46 °F
Humidity 35%
Rainfall 0.00 in
Snow Depth Not available.
5:52 AM 8:54 PM
Waning Gibbous, 83% visible
METAR KCOD 231755Z AUTO 02006KT 10SM CLR 24/05 A3011 RMK AO1 10240 20160 57007
Pressure 30.11 in
Visibility 10.0 miles
Clouds Clear
Heat Index 78 °F
Dew Point 46 °F
Humidity 35%
Rainfall 0.00 in
Snow Depth Not available.
5:52 AM 8:54 PM
Waning Gibbous, 83% visible
METAR KCOD 231755Z AUTO 02006KT 10SM CLR 24/05 A3011 RMK AO1 10240 20160 57007

10-Day Weather Forecast

Almanac

Astronomy

Jul. 23, 2016 Rise Set
Actual Time
Civil Twilight
Nautical Twilight
Astronomical Twilight
Moon
Length of Visible Light
Length of Day
Tomorrow will be .
, % of the Moon is Illuminated

Today's Extremes

State Highs State Lows

Community

WunderPhotos

Upload Photos

1,926,878 photos uploaded!

WunderBlog® & News

Nearby

Air Quality

  Air Quality AQ Index Pollutant
Not available.

Snow Depth

Station Depth Elevation

Earthquake Activity

City Distance Mag. Time & Date
Minimum magnitude displayed is 2.5.

Coastal Water Temperatures

Place Temperature

Stations

Nearby Weather Stations

Station Location Temp. Windchill Dew Point Humidity Wind Precip. Elev Updated Type
                   

Watches & Warnings

There are currently no watches in effect.